createdAt,value
2023-04-05T16:52:28.568Z,101562.39
2023-04-05T16:54:57.830Z,101562.09
2023-04-05T16:57:26.681Z,101560.63
2023-04-05T16:59:55.342Z,101562.66
2023-04-05T17:02:23.740Z,101563.23
2023-04-05T17:04:53.322Z,101564.35
2023-04-05T17:07:21.831Z,101567.74
2023-04-05T17:09:50.572Z,101565.36
2023-04-05T17:12:21.687Z,101567.50
2023-04-05T17:14:50.498Z,101569.45
2023-04-05T17:17:18.736Z,101567.08
2023-04-05T17:19:48.087Z,101567.35
2023-04-05T17:22:16.578Z,101570.56
2023-04-05T17:24:46.772Z,101573.73
2023-04-05T17:27:15.075Z,101579.00
2023-04-05T17:29:43.441Z,101582.55
2023-04-05T17:32:11.764Z,101586.78
2023-04-05T17:34:41.044Z,101587.33
2023-04-05T17:37:09.802Z,101592.40
2023-04-05T17:39:38.155Z,101593.80
2023-04-05T17:42:06.738Z,101590.34
2023-04-05T17:44:35.294Z,101590.34
2023-04-05T17:47:09.140Z,101591.91
2023-04-05T17:49:38.347Z,101596.10
2023-04-05T17:52:10.733Z,101600.65
2023-04-05T17:54:40.685Z,101599.81
2023-04-05T17:57:15.763Z,101602.79
2023-04-05T17:59:45.055Z,101603.66
2023-04-05T18:02:13.716Z,101602.79
2023-04-05T18:04:42.429Z,101603.83
2023-04-05T18:07:11.478Z,101608.35
2023-04-05T18:09:42.626Z,101611.48
2023-04-05T18:12:11.287Z,101610.30
2023-04-05T18:14:40.800Z,101616.05
2023-04-05T18:17:09.612Z,101621.81
2023-04-05T18:19:38.512Z,101619.89
2023-04-05T18:22:07.412Z,101618.17
2023-04-05T18:24:35.971Z,101621.14
2023-04-05T18:27:04.741Z,101623.92
2023-04-05T18:29:38.224Z,101626.73
2023-04-05T18:32:08.478Z,101624.32
2023-04-05T18:34:37.025Z,101626.24
2023-04-05T18:37:06.043Z,101628.85
2023-04-05T18:39:34.446Z,101629.90
2023-04-05T18:42:03.653Z,101631.64
2023-04-05T18:44:32.339Z,101633.56
2023-04-05T18:47:01.476Z,101633.21
2023-04-05T18:49:30.506Z,101633.92
2023-04-05T18:51:59.881Z,101634.62
2023-04-05T18:54:28.520Z,101635.48
2023-04-05T18:56:57.385Z,101640.54
2023-04-05T18:59:31.244Z,101643.85
2023-04-05T19:01:59.729Z,101646.11
2023-04-05T19:04:28.534Z,101646.80
2023-04-05T19:06:58.204Z,101643.32
2023-04-05T19:09:27.706Z,101648.89
2023-04-05T19:11:57.204Z,101650.31
2023-04-05T19:14:25.960Z,101648.21
2023-04-05T19:16:54.771Z,101648.91
2023-04-05T19:19:23.656Z,101651.17
2023-04-05T19:21:52.030Z,101654.84
2023-04-05T19:24:22.159Z,101653.11
2023-04-05T19:26:51.224Z,101651.70
2023-04-05T19:29:19.676Z,101654.50
2023-04-05T19:31:48.523Z,101651.36
2023-04-05T19:34:17.239Z,101650.50
2023-04-05T19:36:45.775Z,101650.16
2023-04-05T19:39:14.372Z,101649.12
2023-04-05T19:41:43.716Z,101651.55
2023-04-05T19:44:34.868Z,101650.69
2023-04-05T19:47:10.158Z,101650.52
2023-04-05T19:49:42.749Z,101650.17
2023-04-05T19:52:32.942Z,101651.38
2023-04-05T19:55:02.658Z,101649.64
2023-04-05T19:57:33.059Z,101655.75
2023-04-05T20:00:01.165Z,101647.73
2023-04-05T20:02:38.479Z,101646.51
2023-04-05T20:05:14.288Z,101644.41
2023-04-05T20:07:42.495Z,101644.41
2023-04-05T20:10:21.109Z,101643.71
2023-04-05T20:12:49.879Z,101643.54
2023-04-05T20:15:34.565Z,101644.94
2023-04-05T20:18:05.980Z,101643.89
2023-04-05T20:20:34.574Z,101640.41
2023-04-05T20:23:04.925Z,101640.76
2023-04-05T20:25:43.581Z,101640.23
2023-04-05T20:28:27.946Z,101641.44
2023-04-05T20:30:56.906Z,101641.45
2023-04-05T20:34:11.266Z,101643.72
2023-04-05T20:36:51.688Z,101642.33
2023-04-05T20:39:19.954Z,101641.64
2023-04-05T20:41:48.345Z,101641.80
2023-04-05T20:44:17.155Z,101640.05
2023-04-05T20:46:45.720Z,101638.48
2023-04-05T20:49:14.340Z,101636.23
2023-04-05T20:51:43.321Z,101635.70
2023-04-05T20:54:11.815Z,101639.17
2023-04-05T20:56:40.303Z,101637.57
2023-04-05T20:59:09.147Z,101633.73
2023-04-05T21:01:38.653Z,101635.64
2023-04-05T21:04:07.467Z,101637.89
2023-04-05T21:06:37.878Z,101636.96
2023-04-05T21:09:06.485Z,101629.80
2023-04-05T21:11:35.231Z,101633.80
2023-04-05T21:14:03.728Z,101635.34
2023-04-05T21:16:32.716Z,101631.84
2023-04-05T21:19:01.303Z,101629.73
2023-04-05T21:21:32.744Z,101630.02
2023-04-05T21:24:04.173Z,101632.06
2023-04-05T21:26:32.487Z,101631.15
2023-04-05T21:29:01.590Z,101630.58
2023-04-05T21:31:30.504Z,101627.73
2023-04-05T21:33:59.043Z,101627.69
2023-04-05T21:36:27.565Z,101629.21
2023-04-05T21:38:56.146Z,101624.65
2023-04-05T21:41:24.911Z,101627.04
2023-04-05T21:43:53.383Z,101629.79
2023-04-05T21:46:22.015Z,101630.77
2023-04-05T21:48:50.587Z,101632.63
2023-04-05T21:51:19.297Z,101632.55
2023-04-05T21:53:48.744Z,101632.81
2023-04-05T21:56:19.266Z,101634.13
2023-04-05T21:58:48.192Z,101631.10
2023-04-05T22:01:16.672Z,101628.94
2023-04-05T22:03:45.290Z,101630.61
2023-04-05T22:06:14.098Z,101630.55
2023-04-05T22:08:42.694Z,101633.10
2023-04-05T22:11:11.249Z,101639.44
2023-04-05T22:13:39.637Z,101640.60
2023-04-05T22:16:08.396Z,101646.12
2023-04-05T22:18:36.902Z,101640.70
2023-04-05T22:21:06.934Z,101642.59
2023-04-05T22:23:35.145Z,101642.35
2023-04-05T22:26:03.445Z,101642.13
2023-04-05T22:28:31.934Z,101641.59
2023-04-05T22:31:00.236Z,101641.72
2023-04-05T22:33:28.589Z,101644.83
2023-04-05T22:35:57.118Z,101649.64
2023-04-05T22:38:25.916Z,101652.44
2023-04-05T22:40:54.406Z,101652.73
2023-04-05T22:43:24.282Z,101656.11
2023-04-05T22:45:52.824Z,101659.34
2023-04-05T22:48:21.572Z,101658.11
2023-04-05T22:50:50.170Z,101660.31
2023-04-05T22:53:18.561Z,101663.06
2023-04-05T22:55:47.241Z,101662.52
2023-04-05T22:58:17.147Z,101658.98
2023-04-05T23:00:45.439Z,101659.99
2023-04-05T23:03:16.792Z,101663.48
2023-04-05T23:05:45.215Z,101665.34
2023-04-05T23:08:13.690Z,101665.21
2023-04-05T23:10:43.122Z,101664.77
2023-04-05T23:13:11.933Z,101663.05
2023-04-05T23:15:41.855Z,101663.40
2023-04-05T23:18:10.474Z,101665.84
2023-04-05T23:20:38.910Z,101664.77
2023-04-05T23:23:07.052Z,101668.77
2023-04-05T23:25:38.079Z,101668.42
2023-04-05T23:28:06.863Z,101667.55
2023-04-05T23:30:35.459Z,101667.34
2023-04-05T23:33:04.264Z,101669.91
2023-04-05T23:35:32.899Z,101674.58
2023-04-05T23:38:01.215Z,101674.66
2023-04-05T23:40:29.551Z,101674.08
2023-04-05T23:42:57.974Z,101673.69
2023-04-05T23:45:27.080Z,101671.03
2023-04-05T23:47:56.060Z,101673.27
2023-04-05T23:50:26.754Z,101672.89
2023-04-05T23:52:55.153Z,101674.10
2023-04-05T23:55:23.559Z,101671.53
2023-04-05T23:57:52.428Z,101672.77
